sensor_id;sensor_type;location;lat;lon;timestamp;temperature;humidity
40670;DHT22;26355;45.528;9.234;2023-04-03T00:01:06;16.60;99.90
40670;DHT22;26355;45.528;9.234;2023-04-03T00:03:32;16.70;99.90
40670;DHT22;26355;45.528;9.234;2023-04-03T00:05:59;16.70;99.90
40670;DHT22;26355;45.528;9.234;2023-04-03T00:08:24;16.70;99.90
40670;DHT22;26355;45.528;9.234;2023-04-03T00:10:50;16.60;99.90
40670;DHT22;26355;45.528;9.234;2023-04-03T00:13:16;16.50;99.90
40670;DHT22;26355;45.528;9.234;2023-04-03T00:15:42;16.50;99.90
40670;DHT22;26355;45.528;9.234;2023-04-03T00:18:08;16.50;99.90
40670;DHT22;26355;45.528;9.234;2023-04-03T00:20:33;16.40;99.90
40670;DHT22;26355;45.528;9.234;2023-04-03T00:23:00;16.60;99.90
40670;DHT22;26355;45.528;9.234;2023-04-03T00:25:26;16.50;99.90
40670;DHT22;26355;45.528;9.234;2023-04-03T00:27:52;16.40;99.90
40670;DHT22;26355;45.528;9.234;2023-04-03T00:30:20;16.50;99.90
40670;DHT22;26355;45.528;9.234;2023-04-03T00:32:48;16.40;99.90
40670;DHT22;26355;45.528;9.234;2023-04-03T00:35:14;16.30;99.90
40670;DHT22;26355;45.528;9.234;2023-04-03T00:37:41;16.30;99.90
40670;DHT22;26355;45.528;9.234;2023-04-03T00:40:07;16.40;99.90
40670;DHT22;26355;45.528;9.234;2023-04-03T00:42:33;16.40;99.90
40670;DHT22;26355;45.528;9.234;2023-04-03T00:47:26;16.40;99.90
40670;DHT22;26355;45.528;9.234;2023-04-03T00:49:53;16.30;99.90
40670;DHT22;26355;45.528;9.234;2023-04-03T00:52:22;16.30;99.90
40670;DHT22;26355;45.528;9.234;2023-04-03T00:54:50;16.30;99.90
40670;DHT22;26355;45.528;9.234;2023-04-03T00:57:17;16.10;99.90
40670;DHT22;26355;45.528;9.234;2023-04-03T00:59:46;16.00;99.90
40670;DHT22;26355;45.528;9.234;2023-04-03T01:02:13;16.00;99.90
40670;DHT22;26355;45.528;9.234;2023-04-03T01:04:42;16.00;99.90
40670;DHT22;26355;45.528;9.234;2023-04-03T01:07:14;15.90;99.90
40670;DHT22;26355;45.528;9.234;2023-04-03T01:09:41;15.90;99.90
40670;DHT22;26355;45.528;9.234;2023-04-03T01:12:25;15.80;99.90
40670;DHT22;26355;45.528;9.234;2023-04-03T01:14:55;15.70;99.90
40670;DHT22;26355;45.528;9.234;2023-04-03T01:17:37;15.70;99.90
40670;DHT22;26355;45.528;9.234;2023-04-03T01:25:56;15.60;99.90
40670;DHT22;26355;45.528;9.234;2023-04-03T01:28:27;15.70;99.90
40670;DHT22;26355;45.528;9.234;2023-04-03T01:31:13;15.70;99.90
40670;DHT22;26355;45.528;9.234;2023-04-03T01:33:40;15.70;99.90
40670;DHT22;26355;45.528;9.234;2023-04-03T01:36:07;15.80;99.90
40670;DHT22;26355;45.528;9.234;2023-04-03T01:38:33;15.80;99.90
40670;DHT22;26355;45.528;9.234;2023-04-03T01:40:59;15.70;99.90
40670;DHT22;26355;45.528;9.234;2023-04-03T01:43:25;15.70;99.90
40670;DHT22;26355;45.528;9.234;2023-04-03T01:45:51;15.60;99.90
40670;DHT22;26355;45.528;9.234;2023-04-03T01:48:18;15.60;99.90
40670;DHT22;26355;45.528;9.234;2023-04-03T01:50:43;15.70;99.90
40670;DHT22;26355;45.528;9.234;2023-04-03T01:53:09;15.60;99.90
40670;DHT22;26355;45.528;9.234;2023-04-03T01:55:34;15.60;99.90
40670;DHT22;26355;45.528;9.234;2023-04-03T01:58:00;15.60;99.90
40670;DHT22;26355;45.528;9.234;2023-04-03T02:00:25;15.60;99.90
40670;DHT22;26355;45.528;9.234;2023-04-03T02:02:52;15.60;99.90
40670;DHT22;26355;45.528;9.234;2023-04-03T02:05:18;15.70;99.90
40670;DHT22;26355;45.528;9.234;2023-04-03T02:07:43;15.60;99.90
40670;DHT22;26355;45.528;9.234;2023-04-03T02:10:09;15.50;99.90
40670;DHT22;26355;45.528;9.234;2023-04-03T02:12:35;15.50;99.90
40670;DHT22;26355;45.528;9.234;2023-04-03T02:15:00;15.50;99.90
40670;DHT22;26355;45.528;9.234;2023-04-03T02:17:26;15.50;99.90
40670;DHT22;26355;45.528;9.234;2023-04-03T02:19:52;15.40;99.90
40670;DHT22;26355;45.528;9.234;2023-04-03T02:22:17;15.40;99.90
40670;DHT22;26355;45.528;9.234;2023-04-03T02:24:43;15.40;99.90
40670;DHT22;26355;45.528;9.234;2023-04-03T02:27:10;15.40;99.90
40670;DHT22;26355;45.528;9.234;2023-04-03T02:29:35;15.40;99.90
40670;DHT22;26355;45.528;9.234;2023-04-03T02:32:01;15.40;99.90
40670;DHT22;26355;45.528;9.234;2023-04-03T02:34:26;15.30;99.90
40670;DHT22;26355;45.528;9.234;2023-04-03T02:36:53;15.30;99.90
40670;DHT22;26355;45.528;9.234;2023-04-03T02:39:37;15.40;99.90
40670;DHT22;26355;45.528;9.234;2023-04-03T02:42:03;15.20;99.90
40670;DHT22;26355;45.528;9.234;2023-04-03T02:44:29;15.30;99.90
40670;DHT22;26355;45.528;9.234;2023-04-03T02:46:55;15.30;99.90
40670;DHT22;26355;45.528;9.234;2023-04-03T02:49:20;15.30;99.90
40670;DHT22;26355;45.528;9.234;2023-04-03T02:51:46;15.20;99.90
40670;DHT22;26355;45.528;9.234;2023-04-03T02:54:13;15.10;99.90
40670;DHT22;26355;45.528;9.234;2023-04-03T02:56:38;15.10;99.90
40670;DHT22;26355;45.528;9.234;2023-04-03T02:59:04;15.00;99.90
40670;DHT22;26355;45.528;9.234;2023-04-03T03:01:30;15.00;99.90
40670;DHT22;26355;45.528;9.234;2023-04-03T03:03:58;15.10;99.90
40670;DHT22;26355;45.528;9.234;2023-04-03T03:06:24;15.00;99.90
40670;DHT22;26355;45.528;9.234;2023-04-03T03:08:50;15.00;99.90
40670;DHT22;26355;45.528;9.234;2023-04-03T03:11:15;14.90;99.90
40670;DHT22;26355;45.528;9.234;2023-04-03T03:13:41;14.90;99.90
40670;DHT22;26355;45.528;9.234;2023-04-03T03:16:07;14.80;99.90
40670;DHT22;26355;45.528;9.234;2023-04-03T03:18:33;14.90;99.90
40670;DHT22;26355;45.528;9.234;2023-04-03T03:21:01;14.80;99.90
40670;DHT22;26355;45.528;9.234;2023-04-03T03:23:28;14.80;99.90
40670;DHT22;26355;45.528;9.234;2023-04-03T03:25:59;14.80;99.90
40670;DHT22;26355;45.528;9.234;2023-04-03T03:28:25;14.70;99.90
40670;DHT22;26355;45.528;9.234;2023-04-03T03:30:51;14.60;99.90
40670;DHT22;26355;45.528;9.234;2023-04-03T03:33:17;14.70;99.90
40670;DHT22;26355;45.528;9.234;2023-04-03T03:35:43;14.70;99.90
40670;DHT22;26355;45.528;9.234;2023-04-03T03:38:09;14.70;99.90
40670;DHT22;26355;45.528;9.234;2023-04-03T03:40:35;14.60;99.90
40670;DHT22;26355;45.528;9.234;2023-04-03T03:43:01;14.60;99.90
40670;DHT22;26355;45.528;9.234;2023-04-03T03:45:26;14.60;99.90
40670;DHT22;26355;45.528;9.234;2023-04-03T03:47:52;14.60;99.90
40670;DHT22;26355;45.528;9.234;2023-04-03T03:50:17;14.60;99.90
40670;DHT22;26355;45.528;9.234;2023-04-03T03:52:43;14.60;99.90
40670;DHT22;26355;45.528;9.234;2023-04-03T03:55:09;14.40;99.90
40670;DHT22;26355;45.528;9.234;2023-04-03T03:57:35;14.40;99.90
40670;DHT22;26355;45.528;9.234;2023-04-03T04:00:02;14.30;99.90
40670;DHT22;26355;45.528;9.234;2023-04-03T04:02:28;14.40;99.90
40670;DHT22;26355;45.528;9.234;2023-04-03T04:04:54;14.30;99.90
40670;DHT22;26355;45.528;9.234;2023-04-03T04:07:20;14.40;99.90
40670;DHT22;26355;45.528;9.234;2023-04-03T04:09:45;14.30;99.90
40670;DHT22;26355;45.528;9.234;2023-04-03T04:12:11;14.40;99.90
40670;DHT22;26355;45.528;9.234;2023-04-03T04:14:36;14.40;99.90
40670;DHT22;26355;45.528;9.234;2023-04-03T04:17:02;14.40;99.90
40670;DHT22;26355;45.528;9.234;2023-04-03T04:19:28;14.40;99.90
40670;DHT22;26355;45.528;9.234;2023-04-03T04:21:53;14.40;99.90
40670;DHT22;26355;45.528;9.234;2023-04-03T04:24:19;14.20;99.90
40670;DHT22;26355;45.528;9.234;2023-04-03T04:26:45;13.90;99.90
40670;DHT22;26355;45.528;9.234;2023-04-03T04:29:10;14.00;99.90
40670;DHT22;26355;45.528;9.234;2023-04-03T04:31:36;14.00;99.90
40670;DHT22;26355;45.528;9.234;2023-04-03T04:34:02;14.00;99.90
40670;DHT22;26355;45.528;9.234;2023-04-03T04:36:27;14.10;99.90
40670;DHT22;26355;45.528;9.234;2023-04-03T04:38:53;14.20;99.90
40670;DHT22;26355;45.528;9.234;2023-04-03T04:41:20;14.20;99.90
40670;DHT22;26355;45.528;9.234;2023-04-03T04:43:48;14.00;99.90
40670;DHT22;26355;45.528;9.234;2023-04-03T04:46:14;14.20;99.90
40670;DHT22;26355;45.528;9.234;2023-04-03T04:48:39;14.00;99.90
40670;DHT22;26355;45.528;9.234;2023-04-03T04:51:06;14.10;99.90
40670;DHT22;26355;45.528;9.234;2023-04-03T04:53:31;14.10;99.90
40670;DHT22;26355;45.528;9.234;2023-04-03T04:55:57;14.10;99.90
40670;DHT22;26355;45.528;9.234;2023-04-03T04:58:23;13.90;99.90
40670;DHT22;26355;45.528;9.234;2023-04-03T05:00:48;13.90;99.90
40670;DHT22;26355;45.528;9.234;2023-04-03T05:03:14;13.90;99.90
40670;DHT22;26355;45.528;9.234;2023-04-03T05:05:40;13.90;99.90
40670;DHT22;26355;45.528;9.234;2023-04-03T05:08:06;14.00;99.90
40670;DHT22;26355;45.528;9.234;2023-04-03T05:10:33;13.90;99.90
40670;DHT22;26355;45.528;9.234;2023-04-03T05:12:59;14.00;99.90
40670;DHT22;26355;45.528;9.234;2023-04-03T05:15:25;14.00;99.90
40670;DHT22;26355;45.528;9.234;2023-04-03T05:17:50;14.00;99.90
40670;DHT22;26355;45.528;9.234;2023-04-03T05:20:16;14.20;99.90
40670;DHT22;26355;45.528;9.234;2023-04-03T05:22:42;14.20;99.90
40670;DHT22;26355;45.528;9.234;2023-04-03T05:25:08;14.20;99.90
40670;DHT22;26355;45.528;9.234;2023-04-03T05:27:34;14.20;99.90
40670;DHT22;26355;45.528;9.234;2023-04-03T05:29:59;14.30;99.90
40670;DHT22;26355;45.528;9.234;2023-04-03T05:32:25;14.40;99.90
40670;DHT22;26355;45.528;9.234;2023-04-03T05:34:52;14.60;99.90
40670;DHT22;26355;45.528;9.234;2023-04-03T05:37:18;14.70;99.90
40670;DHT22;26355;45.528;9.234;2023-04-03T05:39:44;14.80;99.90
40670;DHT22;26355;45.528;9.234;2023-04-03T05:42:10;14.90;99.90
40670;DHT22;26355;45.528;9.234;2023-04-03T05:44:37;15.00;99.90
40670;DHT22;26355;45.528;9.234;2023-04-03T05:47:02;15.30;99.90
40670;DHT22;26355;45.528;9.234;2023-04-03T05:49:28;15.90;99.90
40670;DHT22;26355;45.528;9.234;2023-04-03T05:51:53;16.30;99.90
40670;DHT22;26355;45.528;9.234;2023-04-03T05:54:23;16.60;99.90
40670;DHT22;26355;45.528;9.234;2023-04-03T05:56:50;16.90;99.90
40670;DHT22;26355;45.528;9.234;2023-04-03T05:59:17;17.20;99.90
40670;DHT22;26355;45.528;9.234;2023-04-03T06:01:43;17.50;99.70
40670;DHT22;26355;45.528;9.234;2023-04-03T06:04:09;17.70;99.40
40670;DHT22;26355;45.528;9.234;2023-04-03T06:06:55;18.00;99.30
40670;DHT22;26355;45.528;9.234;2023-04-03T06:09:24;18.00;98.90
40670;DHT22;26355;45.528;9.234;2023-04-03T06:11:50;18.00;98.90
40670;DHT22;26355;45.528;9.234;2023-04-03T06:14:17;18.00;99.00
40670;DHT22;26355;45.528;9.234;2023-04-03T06:16:42;18.00;99.00
40670;DHT22;26355;45.528;9.234;2023-04-03T06:19:09;18.10;99.00
40670;DHT22;26355;45.528;9.234;2023-04-03T06:21:35;18.10;98.90
40670;DHT22;26355;45.528;9.234;2023-04-03T06:24:03;18.20;98.70
40670;DHT22;26355;45.528;9.234;2023-04-03T06:26:28;18.40;98.60
40670;DHT22;26355;45.528;9.234;2023-04-03T06:28:54;18.50;98.30
40670;DHT22;26355;45.528;9.234;2023-04-03T06:31:20;18.60;97.40
40670;DHT22;26355;45.528;9.234;2023-04-03T06:33:45;18.70;96.70
40670;DHT22;26355;45.528;9.234;2023-04-03T06:36:12;18.80;96.10
40670;DHT22;26355;45.528;9.234;2023-04-03T06:38:37;19.00;95.50
40670;DHT22;26355;45.528;9.234;2023-04-03T06:41:03;19.10;95.00
40670;DHT22;26355;45.528;9.234;2023-04-03T06:43:29;19.20;94.80
40670;DHT22;26355;45.528;9.234;2023-04-03T06:45:56;19.30;94.50
40670;DHT22;26355;45.528;9.234;2023-04-03T06:48:22;19.30;94.10
40670;DHT22;26355;45.528;9.234;2023-04-03T06:50:47;19.40;94.10
40670;DHT22;26355;45.528;9.234;2023-04-03T06:53:13;19.50;93.90
40670;DHT22;26355;45.528;9.234;2023-04-03T06:55:38;19.60;93.50
40670;DHT22;26355;45.528;9.234;2023-04-03T06:58:04;19.20;93.90
40670;DHT22;26355;45.528;9.234;2023-04-03T07:00:30;19.30;93.90
40670;DHT22;26355;45.528;9.234;2023-04-03T07:02:56;19.30;94.00
40670;DHT22;26355;45.528;9.234;2023-04-03T07:05:23;19.50;93.90
40670;DHT22;26355;45.528;9.234;2023-04-03T07:07:49;19.50;93.80
40670;DHT22;26355;45.528;9.234;2023-04-03T07:10:15;19.70;93.80
40670;DHT22;26355;45.528;9.234;2023-04-03T07:12:41;19.80;93.60
40670;DHT22;26355;45.528;9.234;2023-04-03T07:15:07;19.80;93.60
40670;DHT22;26355;45.528;9.234;2023-04-03T07:17:33;19.70;93.50
40670;DHT22;26355;45.528;9.234;2023-04-03T07:19:59;19.60;93.60
40670;DHT22;26355;45.528;9.234;2023-04-03T07:22:25;19.70;93.50
40670;DHT22;26355;45.528;9.234;2023-04-03T07:24:50;19.80;93.50
40670;DHT22;26355;45.528;9.234;2023-04-03T07:27:16;19.90;93.40
40670;DHT22;26355;45.528;9.234;2023-04-03T07:29:43;20.00;93.20
40670;DHT22;26355;45.528;9.234;2023-04-03T07:32:10;19.60;93.40
40670;DHT22;26355;45.528;9.234;2023-04-03T07:34:36;19.40;93.40
40670;DHT22;26355;45.528;9.234;2023-04-03T07:37:02;19.50;93.60
40670;DHT22;26355;45.528;9.234;2023-04-03T07:39:28;19.30;93.70
40670;DHT22;26355;45.528;9.234;2023-04-03T07:41:54;19.20;94.00
40670;DHT22;26355;45.528;9.234;2023-04-03T07:44:21;19.30;94.00
40670;DHT22;26355;45.528;9.234;2023-04-03T07:46:47;19.10;94.10
40670;DHT22;26355;45.528;9.234;2023-04-03T07:49:14;19.00;94.30
40670;DHT22;26355;45.528;9.234;2023-04-03T07:51:39;18.80;94.70
40670;DHT22;26355;45.528;9.234;2023-04-03T07:54:06;18.60;94.70
40670;DHT22;26355;45.528;9.234;2023-04-03T07:56:31;18.70;94.80
40670;DHT22;26355;45.528;9.234;2023-04-03T07:58:57;18.50;95.40
40670;DHT22;26355;45.528;9.234;2023-04-03T08:01:23;18.40;95.30
40670;DHT22;26355;45.528;9.234;2023-04-03T08:03:48;18.30;95.60
40670;DHT22;26355;45.528;9.234;2023-04-03T08:06:14;18.40;95.70
40670;DHT22;26355;45.528;9.234;2023-04-03T08:08:40;18.50;95.70
40670;DHT22;26355;45.528;9.234;2023-04-03T08:11:06;18.40;96.00
40670;DHT22;26355;45.528;9.234;2023-04-03T08:13:33;18.00;96.20
40670;DHT22;26355;45.528;9.234;2023-04-03T08:16:10;18.00;96.40
40670;DHT22;26355;45.528;9.234;2023-04-03T08:18:36;17.70;96.90
40670;DHT22;26355;45.528;9.234;2023-04-03T08:21:05;17.90;96.70
40670;DHT22;26355;45.528;9.234;2023-04-03T08:23:31;17.60;97.10
40670;DHT22;26355;45.528;9.234;2023-04-03T08:25:57;17.60;97.50
40670;DHT22;26355;45.528;9.234;2023-04-03T08:28:22;17.30;97.50
40670;DHT22;26355;45.528;9.234;2023-04-03T08:30:48;17.10;98.00
40670;DHT22;26355;45.528;9.234;2023-04-03T08:33:13;17.20;97.90
40670;DHT22;26355;45.528;9.234;2023-04-03T08:35:40;17.20;98.20
40670;DHT22;26355;45.528;9.234;2023-04-03T08:38:06;17.30;98.10
40670;DHT22;26355;45.528;9.234;2023-04-03T08:40:31;17.40;98.00
40670;DHT22;26355;45.528;9.234;2023-04-03T08:43:12;17.70;98.00
40670;DHT22;26355;45.528;9.234;2023-04-03T08:45:52;17.80;98.10
40670;DHT22;26355;45.528;9.234;2023-04-03T08:48:27;17.90;98.00
40670;DHT22;26355;45.528;9.234;2023-04-03T08:50:57;18.00;98.00
40670;DHT22;26355;45.528;9.234;2023-04-03T08:53:31;18.00;98.10
40670;DHT22;26355;45.528;9.234;2023-04-03T08:55:58;17.80;98.20
40670;DHT22;26355;45.528;9.234;2023-04-03T08:58:35;17.90;98.20
40670;DHT22;26355;45.528;9.234;2023-04-03T09:01:17;17.80;98.50
40670;DHT22;26355;45.528;9.234;2023-04-03T09:03:44;17.70;98.50
40670;DHT22;26355;45.528;9.234;2023-04-03T09:06:21;18.00;98.40
40670;DHT22;26355;45.528;9.234;2023-04-03T09:09:04;17.70;98.70
40670;DHT22;26355;45.528;9.234;2023-04-03T09:22:46;18.40;98.40
40670;DHT22;26355;45.528;9.234;2023-04-03T09:25:17;18.20;98.40
40670;DHT22;26355;45.528;9.234;2023-04-03T09:27:43;18.40;98.50
40670;DHT22;26355;45.528;9.234;2023-04-03T09:30:17;18.50;98.50
40670;DHT22;26355;45.528;9.234;2023-04-03T09:32:47;18.50;98.40
40670;DHT22;26355;45.528;9.234;2023-04-03T09:35:20;18.60;98.20
40670;DHT22;26355;45.528;9.234;2023-04-03T09:37:51;18.70;98.30
40670;DHT22;26355;45.528;9.234;2023-04-03T09:41:17;18.90;98.10
40670;DHT22;26355;45.528;9.234;2023-04-03T09:43:29;19.00;98.00
40670;DHT22;26355;45.528;9.234;2023-04-03T09:46:15;18.90;98.20
40670;DHT22;26355;45.528;9.234;2023-04-03T09:48:57;19.00;98.10
40670;DHT22;26355;45.528;9.234;2023-04-03T09:51:27;19.10;97.90
40670;DHT22;26355;45.528;9.234;2023-04-03T09:53:53;19.10;97.80
40670;DHT22;26355;45.528;9.234;2023-04-03T09:56:22;19.20;98.00
40670;DHT22;26355;45.528;9.234;2023-04-03T09:59:13;19.30;97.60
40670;DHT22;26355;45.528;9.234;2023-04-03T10:01:43;18.70;97.80
40670;DHT22;26355;45.528;9.234;2023-04-03T10:04:21;19.10;97.70
40670;DHT22;26355;45.528;9.234;2023-04-03T10:06:52;19.10;97.50
40670;DHT22;26355;45.528;9.234;2023-04-03T10:09:32;19.00;97.40
40670;DHT22;26355;45.528;9.234;2023-04-03T10:12:12;18.90;97.90
40670;DHT22;26355;45.528;9.234;2023-04-03T10:14:57;18.90;98.10
40670;DHT22;26355;45.528;9.234;2023-04-03T10:17:35;18.80;98.10
40670;DHT22;26355;45.528;9.234;2023-04-03T10:25:59;18.80;98.10
40670;DHT22;26355;45.528;9.234;2023-04-03T10:31:31;19.20;98.00
40670;DHT22;26355;45.528;9.234;2023-04-03T10:34:24;19.30;98.20
40670;DHT22;26355;45.528;9.234;2023-04-03T10:39:52;19.50;97.90
40670;DHT22;26355;45.528;9.234;2023-04-03T10:58:03;19.40;96.40
40670;DHT22;26355;45.528;9.234;2023-04-03T11:00:50;19.70;96.90
40670;DHT22;26355;45.528;9.234;2023-04-03T11:05:47;19.90;96.70
40670;DHT22;26355;45.528;9.234;2023-04-03T11:11:06;20.00;96.70
40670;DHT22;26355;45.528;9.234;2023-04-03T11:13:40;20.00;96.50
40670;DHT22;26355;45.528;9.234;2023-04-03T11:16:08;20.00;96.90
40670;DHT22;26355;45.528;9.234;2023-04-03T11:18:45;20.20;96.60
40670;DHT22;26355;45.528;9.234;2023-04-03T11:21:21;20.20;96.30
40670;DHT22;26355;45.528;9.234;2023-04-03T11:23:48;20.20;96.10
40670;DHT22;26355;45.528;9.234;2023-04-03T11:26:19;20.20;95.70
40670;DHT22;26355;45.528;9.234;2023-04-03T11:28:46;20.10;95.60
40670;DHT22;26355;45.528;9.234;2023-04-03T11:34:07;20.30;95.20
40670;DHT22;26355;45.528;9.234;2023-04-03T11:36:45;20.20;95.30
40670;DHT22;26355;45.528;9.234;2023-04-03T11:39:34;20.10;95.50
40670;DHT22;26355;45.528;9.234;2023-04-03T11:48:01;20.10;95.30
40670;DHT22;26355;45.528;9.234;2023-04-03T11:50:32;20.20;95.70
40670;DHT22;26355;45.528;9.234;2023-04-03T11:56:02;20.40;95.30
40670;DHT22;26355;45.528;9.234;2023-04-03T11:58:29;20.50;95.50
40670;DHT22;26355;45.528;9.234;2023-04-03T12:01:04;20.40;95.20
40670;DHT22;26355;45.528;9.234;2023-04-03T12:04:15;20.40;95.10
40670;DHT22;26355;45.528;9.234;2023-04-03T12:06:41;20.50;95.00
40670;DHT22;26355;45.528;9.234;2023-04-03T12:09:04;20.50;94.70
40670;DHT22;26355;45.528;9.234;2023-04-03T12:11:47;20.50;94.50
40670;DHT22;26355;45.528;9.234;2023-04-03T12:14:15;20.40;94.50
40670;DHT22;26355;45.528;9.234;2023-04-03T12:16:44;20.30;94.30
40670;DHT22;26355;45.528;9.234;2023-04-03T12:29:40;20.50;94.20
40670;DHT22;26355;45.528;9.234;2023-04-03T12:34:56;20.60;93.30
40670;DHT22;26355;45.528;9.234;2023-04-03T12:40:34;20.50;93.70
40670;DHT22;26355;45.528;9.234;2023-04-03T12:45:56;20.40;93.80
40670;DHT22;26355;45.528;9.234;2023-04-03T12:48:27;20.50;93.90
40670;DHT22;26355;45.528;9.234;2023-04-03T12:50:54;20.60;93.90
40670;DHT22;26355;45.528;9.234;2023-04-03T12:53:25;20.40;94.00
40670;DHT22;26355;45.528;9.234;2023-04-03T12:56:24;20.20;93.80
40670;DHT22;26355;45.528;9.234;2023-04-03T12:58:53;20.40;93.80
40670;DHT22;26355;45.528;9.234;2023-04-03T13:01:26;20.40;93.50
40670;DHT22;26355;45.528;9.234;2023-04-03T13:03:57;20.50;93.40
40670;DHT22;26355;45.528;9.234;2023-04-03T13:06:26;20.40;93.50
40670;DHT22;26355;45.528;9.234;2023-04-03T13:08:55;20.30;93.50
40670;DHT22;26355;45.528;9.234;2023-04-03T13:11:23;20.30;93.60
40670;DHT22;26355;45.528;9.234;2023-04-03T13:16:25;20.50;93.30
40670;DHT22;26355;45.528;9.234;2023-04-03T13:18:53;20.30;93.20
40670;DHT22;26355;45.528;9.234;2023-04-03T13:21:37;20.20;93.10
40670;DHT22;26355;45.528;9.234;2023-04-03T13:24:03;20.00;93.10
40670;DHT22;26355;45.528;9.234;2023-04-03T13:26:31;20.00;93.30
40670;DHT22;26355;45.528;9.234;2023-04-03T13:29:22;20.00;93.40
40670;DHT22;26355;45.528;9.234;2023-04-03T13:31:53;20.00;92.80
40670;DHT22;26355;45.528;9.234;2023-04-03T13:34:20;20.10;92.70
40670;DHT22;26355;45.528;9.234;2023-04-03T13:41:47;19.90;93.40
40670;DHT22;26355;45.528;9.234;2023-04-03T13:47:16;19.90;93.00
40670;DHT22;26355;45.528;9.234;2023-04-03T13:49:45;20.00;92.80
40670;DHT22;26355;45.528;9.234;2023-04-03T13:54:47;19.80;92.90
40670;DHT22;26355;45.528;9.234;2023-04-03T13:57:16;19.90;93.00
40670;DHT22;26355;45.528;9.234;2023-04-03T13:59:42;19.90;92.90
40670;DHT22;26355;45.528;9.234;2023-04-03T14:07:03;20.00;93.00
40670;DHT22;26355;45.528;9.234;2023-04-03T14:09:29;20.20;93.10
40670;DHT22;26355;45.528;9.234;2023-04-03T14:12:02;20.20;92.90
40670;DHT22;26355;45.528;9.234;2023-04-03T14:14:32;20.30;93.00
40670;DHT22;26355;45.528;9.234;2023-04-03T14:17:02;19.90;93.60
40670;DHT22;26355;45.528;9.234;2023-04-03T14:19:34;20.00;93.70
40670;DHT22;26355;45.528;9.234;2023-04-03T14:22:11;19.90;93.70
40670;DHT22;26355;45.528;9.234;2023-04-03T14:24:37;19.90;93.70
40670;DHT22;26355;45.528;9.234;2023-04-03T14:27:13;20.00;93.50
40670;DHT22;26355;45.528;9.234;2023-04-03T14:29:41;20.10;93.30
40670;DHT22;26355;45.528;9.234;2023-04-03T14:32:06;20.00;93.50
40670;DHT22;26355;45.528;9.234;2023-04-03T14:34:32;20.10;93.60
40670;DHT22;26355;45.528;9.234;2023-04-03T14:36:58;19.90;93.50
40670;DHT22;26355;45.528;9.234;2023-04-03T14:39:23;19.90;93.90
40670;DHT22;26355;45.528;9.234;2023-04-03T14:41:49;19.80;94.30
40670;DHT22;26355;45.528;9.234;2023-04-03T14:44:14;19.60;94.60
40670;DHT22;26355;45.528;9.234;2023-04-03T14:46:43;19.50;94.50
40670;DHT22;26355;45.528;9.234;2023-04-03T14:49:18;19.60;94.50
40670;DHT22;26355;45.528;9.234;2023-04-03T14:51:45;19.60;94.60
40670;DHT22;26355;45.528;9.234;2023-04-03T14:54:14;19.50;94.60
40670;DHT22;26355;45.528;9.234;2023-04-03T14:56:41;19.50;94.70
40670;DHT22;26355;45.528;9.234;2023-04-03T14:59:11;19.40;94.80
40670;DHT22;26355;45.528;9.234;2023-04-03T15:01:36;19.30;94.70
40670;DHT22;26355;45.528;9.234;2023-04-03T15:04:10;19.40;94.60
40670;DHT22;26355;45.528;9.234;2023-04-03T15:06:35;19.40;94.60
40670;DHT22;26355;45.528;9.234;2023-04-03T15:09:01;19.20;94.70
40670;DHT22;26355;45.528;9.234;2023-04-03T15:11:28;19.20;94.60
40670;DHT22;26355;45.528;9.234;2023-04-03T15:13:54;19.20;94.50
40670;DHT22;26355;45.528;9.234;2023-04-03T15:16:20;19.00;94.60
40670;DHT22;26355;45.528;9.234;2023-04-03T15:18:48;18.90;94.60
40670;DHT22;26355;45.528;9.234;2023-04-03T15:21:14;18.80;94.70
40670;DHT22;26355;45.528;9.234;2023-04-03T15:23:39;18.80;94.70
40670;DHT22;26355;45.528;9.234;2023-04-03T15:26:05;18.60;94.70
40670;DHT22;26355;45.528;9.234;2023-04-03T15:28:35;18.60;94.90
40670;DHT22;26355;45.528;9.234;2023-04-03T15:31:02;18.50;94.80
40670;DHT22;26355;45.528;9.234;2023-04-03T15:33:28;18.40;94.70
40670;DHT22;26355;45.528;9.234;2023-04-03T15:35:54;18.50;94.80
40670;DHT22;26355;45.528;9.234;2023-04-03T15:38:19;18.30;94.90
40670;DHT22;26355;45.528;9.234;2023-04-03T15:40:45;18.40;94.90
40670;DHT22;26355;45.528;9.234;2023-04-03T15:43:12;18.30;94.80
40670;DHT22;26355;45.528;9.234;2023-04-03T15:45:38;18.30;94.70
40670;DHT22;26355;45.528;9.234;2023-04-03T15:48:05;18.10;94.90
40670;DHT22;26355;45.528;9.234;2023-04-03T15:50:32;18.00;94.80
40670;DHT22;26355;45.528;9.234;2023-04-03T15:52:58;17.90;95.00
40670;DHT22;26355;45.528;9.234;2023-04-03T15:55:25;17.90;94.80
40670;DHT22;26355;45.528;9.234;2023-04-03T15:57:52;17.90;95.00
40670;DHT22;26355;45.528;9.234;2023-04-03T16:00:18;18.00;94.80
40670;DHT22;26355;45.528;9.234;2023-04-03T16:02:46;18.10;94.70
40670;DHT22;26355;45.528;9.234;2023-04-03T16:05:12;18.10;94.50
40670;DHT22;26355;45.528;9.234;2023-04-03T16:07:39;18.10;94.50
40670;DHT22;26355;45.528;9.234;2023-04-03T16:10:07;17.80;94.90
40670;DHT22;26355;45.528;9.234;2023-04-03T16:12:32;17.80;94.50
40670;DHT22;26355;45.528;9.234;2023-04-03T16:14:58;17.80;94.80
40670;DHT22;26355;45.528;9.234;2023-04-03T16:17:24;17.80;94.70
40670;DHT22;26355;45.528;9.234;2023-04-03T16:19:51;17.70;94.80
40670;DHT22;26355;45.528;9.234;2023-04-03T16:22:17;17.80;94.70
40670;DHT22;26355;45.528;9.234;2023-04-03T16:24:42;17.50;94.80
40670;DHT22;26355;45.528;9.234;2023-04-03T16:27:08;17.60;94.90
40670;DHT22;26355;45.528;9.234;2023-04-03T16:29:34;17.60;94.70
40670;DHT22;26355;45.528;9.234;2023-04-03T16:32:00;17.50;94.80
40670;DHT22;26355;45.528;9.234;2023-04-03T16:34:26;17.40;94.80
40670;DHT22;26355;45.528;9.234;2023-04-03T16:36:52;17.40;94.80
40670;DHT22;26355;45.528;9.234;2023-04-03T16:39:18;17.40;94.80
40670;DHT22;26355;45.528;9.234;2023-04-03T16:41:43;17.50;94.90
40670;DHT22;26355;45.528;9.234;2023-04-03T16:44:10;17.40;94.90
40670;DHT22;26355;45.528;9.234;2023-04-03T16:46:36;17.50;94.80
40670;DHT22;26355;45.528;9.234;2023-04-03T16:49:02;17.40;94.70
40670;DHT22;26355;45.528;9.234;2023-04-03T16:51:28;17.20;94.80
40670;DHT22;26355;45.528;9.234;2023-04-03T16:53:54;16.90;95.10
40670;DHT22;26355;45.528;9.234;2023-04-03T16:56:20;17.00;95.20
40670;DHT22;26355;45.528;9.234;2023-04-03T16:58:45;17.10;95.20
40670;DHT22;26355;45.528;9.234;2023-04-03T17:01:16;17.00;95.10
40670;DHT22;26355;45.528;9.234;2023-04-03T17:03:42;16.80;95.10
40670;DHT22;26355;45.528;9.234;2023-04-03T17:06:11;16.70;95.10
40670;DHT22;26355;45.528;9.234;2023-04-03T17:08:41;16.70;94.90
40670;DHT22;26355;45.528;9.234;2023-04-03T17:11:07;16.70;95.00
40670;DHT22;26355;45.528;9.234;2023-04-03T17:13:34;16.90;95.10
40670;DHT22;26355;45.528;9.234;2023-04-03T17:16:00;16.80;94.80
40670;DHT22;26355;45.528;9.234;2023-04-03T17:18:28;16.50;95.00